Terminal Aerodrome Forecast
Issued by NWS

Home | Current Version | Previous Version | Text Only | Print | Product List | Glossary On
Versions: 1 2 3 4 5 6 7 8 9 10 11 12 13 14 15
000
FTUS43 KGRR 242300 RRA
TAFLAN
TAF
KLAN 242343Z 2500/2524 11011G21KT P6SM VCSH OVC120
     FM250700 11010G18KT 6SM -RA OVC060
     FM251100 10006KT 5SM -RA OVC040
     FM251500 30008KT P6SM OVC025
     FM251800 30012G23KT P6SM SCT040=

USA.gov is the U.S. government's official web portal to all federal, state and local government web resources and services.